Time;durP1;ratioP1;P1;durP2;ratioP2;P2;SDS_P1;SDS_P2;PMS_P1;PMS_P2;Temp;Humidity;BMP_temperature;BMP_pressure;BME280_temperature;BME280_humidity;BME280_pressure;Samples;Min_cycle;Max_cycle;Signal;HPM_P1;HPM_P2
2023/09/09 00:00:07;;;;;;;6.47;2.95;;;23.90;55.70;;;;;;2520089;54;21081;-70
2023/09/09 00:02:33;;;;;;;4.00;2.78;;;23.80;55.70;;;;;;2522359;54;20926;-69
2023/09/09 00:04:59;;;;;;;3.65;2.47;;;23.80;55.70;;;;;;2522300;54;20956;-70
2023/09/09 00:07:26;;;;;;;4.10;3.00;;;23.80;55.80;;;;;;2521013;54;21778;-68
2023/09/09 00:09:52;;;;;;;4.97;3.22;;;23.80;55.90;;;;;;2519715;54;20966;-67
2023/09/09 00:12:19;;;;;;;4.85;3.78;;;23.80;56.10;;;;;;2285739;55;20930;-69
2023/09/09 00:14:47;;;;;;;5.40;2.70;;;23.70;56.60;;;;;;2521848;54;20956;-69
2023/09/09 00:17:13;;;;;;;4.35;3.03;;;23.70;56.00;;;;;;2286247;55;21482;-68
2023/09/09 00:19:40;;;;;;;4.90;3.75;;;23.70;56.00;;;;;;2520729;54;20962;-68
2023/09/09 00:22:06;;;;;;;4.25;3.30;;;23.70;56.10;;;;;;2520307;54;20949;-68
2023/09/09 00:24:34;;;;;;;4.62;3.10;;;23.70;56.10;;;;;;2520105;54;22338;-68
2023/09/09 00:27:00;;;;;;;4.57;2.95;;;23.60;56.00;;;;;;2520039;54;20965;-68
2023/09/09 00:29:27;;;;;;;5.57;3.00;;;23.60;56.10;;;;;;2519339;54;21481;-67
2023/09/09 00:31:54;;;;;;;5.05;3.10;;;23.60;56.10;;;;;;2520251;54;21490;-70
2023/09/09 00:34:20;;;;;;;3.65;2.45;;;23.60;56.10;;;;;;2520377;54;20970;-68
2023/09/09 00:36:47;;;;;;;5.35;3.00;;;23.60;56.10;;;;;;2519860;54;20971;-69
2023/09/09 00:39:14;;;;;;;6.12;2.80;;;23.50;56.10;;;;;;2520166;54;20974;-68
2023/09/09 00:41:41;;;;;;;3.53;2.30;;;23.50;56.10;;;;;;2287606;55;21029;-67
2023/09/09 00:44:09;;;;;;;4.85;2.70;;;23.50;56.20;;;;;;2284776;55;21772;-69
2023/09/09 00:46:35;;;;;;;4.53;2.87;;;23.50;56.20;;;;;;2285518;55;20997;-68
2023/09/09 00:49:03;;;;;;;4.18;2.70;;;23.40;56.40;;;;;;2285471;55;21021;-72
2023/09/09 00:51:30;;;;;;;4.07;3.00;;;23.40;56.50;;;;;;2521383;54;21682;-68
2023/09/09 00:53:56;;;;;;;4.35;3.25;;;23.40;56.50;;;;;;2521719;54;21320;-68
2023/09/09 00:56:23;;;;;;;4.45;3.03;;;23.40;56.60;;;;;;2517145;54;21450;-69
2023/09/09 00:58:50;;;;;;;4.62;3.03;;;23.40;56.60;;;;;;2285486;55;20977;-70
2023/09/09 01:01:16;;;;;;;5.97;3.15;;;23.40;56.60;;;;;;2518656;54;21074;-68
2023/09/09 01:03:43;;;;;;;4.37;3.25;;;23.40;56.60;;;;;;2519773;54;20994;-72
2023/09/09 01:06:10;;;;;;;4.90;3.17;;;23.30;56.60;;;;;;2286175;55;21280;-68
2023/09/09 01:08:37;;;;;;;4.05;2.90;;;23.30;56.60;;;;;;2522675;54;20951;-68
2023/09/09 01:11:06;;;;;;;4.20;2.97;;;23.30;56.60;;;;;;2519457;54;20981;-68
2023/09/09 01:13:33;;;;;;;4.32;2.62;;;23.30;56.70;;;;;;2518695;54;21053;-67
2023/09/09 01:16:00;;;;;;;4.32;2.97;;;23.20;56.50;;;;;;2519732;54;21005;-71
2023/09/09 01:18:28;;;;;;;4.55;2.85;;;23.20;56.50;;;;;;2519991;54;21489;-68
2023/09/09 01:21:08;;;;;;;4.95;2.92;;;23.20;56.50;;;;;;2521669;54;21029;-67
2023/09/09 01:23:41;;;;;;;4.50;2.70;;;23.20;56.60;;;;;;2520321;54;20942;-68
2023/09/09 01:26:07;;;;;;;4.18;2.78;;;23.10;56.60;;;;;;2519308;54;21023;-68
2023/09/09 01:28:36;;;;;;;4.03;2.78;;;23.10;56.60;;;;;;2519380;54;20942;-66
2023/09/09 01:31:03;;;;;;;4.47;2.97;;;23.10;56.70;;;;;;2291491;55;20979;-68
2023/09/09 01:33:31;;;;;;;4.80;3.33;;;23.10;56.70;;;;;;2519391;54;20961;-68
2023/09/09 01:35:57;;;;;;;4.62;3.30;;;23.00;56.80;;;;;;2518893;54;20945;-67
2023/09/09 01:38:25;;;;;;;4.10;2.72;;;23.00;56.80;;;;;;2519972;54;20971;-68
2023/09/09 01:40:51;;;;;;;5.00;3.25;;;23.00;56.90;;;;;;2520965;54;21004;-67
2023/09/09 01:43:17;;;;;;;4.65;3.35;;;23.00;57.00;;;;;;2520430;54;21041;-69
2023/09/09 01:45:44;;;;;;;4.75;3.05;;;23.00;57.10;;;;;;2520368;54;21065;-67
2023/09/09 01:48:10;;;;;;;4.20;2.87;;;22.90;57.10;;;;;;2521673;54;21775;-66
2023/09/09 01:50:37;;;;;;;3.90;2.60;;;22.90;57.10;;;;;;2292713;55;21045;-68
2023/09/09 01:53:03;;;;;;;4.40;2.70;;;22.90;57.00;;;;;;2523356;54;20957;-69
2023/09/09 01:55:30;;;;;;;4.75;3.17;;;22.90;57.00;;;;;;2521224;54;21473;-70
2023/09/09 01:57:56;;;;;;;4.07;2.80;;;22.80;56.90;;;;;;2521760;54;20942;-67
2023/09/09 02:00:23;;;;;;;4.18;2.40;;;22.80;57.00;;;;;;2521522;54;21002;-68
2023/09/09 02:02:49;;;;;;;4.78;2.90;;;22.80;57.00;;;;;;2523308;54;20977;-67
2023/09/09 02:05:15;;;;;;;4.55;3.20;;;22.80;57.00;;;;;;2520706;54;20986;-70
2023/09/09 02:07:42;;;;;;;5.10;3.10;;;22.80;57.20;;;;;;2520714;54;21438;-68
2023/09/09 02:10:09;;;;;;;4.68;3.15;;;22.70;57.30;;;;;;2286870;55;21361;-67
2023/09/09 02:12:37;;;;;;;4.70;2.85;;;22.70;57.30;;;;;;2286172;55;20973;-66
2023/09/09 02:15:05;;;;;;;5.05;3.20;;;22.70;57.20;;;;;;2519812;54;20990;-67
2023/09/09 02:17:32;;;;;;;4.68;3.20;;;22.70;57.30;;;;;;2520627;54;20996;-68
2023/09/09 02:19:58;;;;;;;6.03;3.90;;;22.70;58.00;;;;;;2521585;54;21525;-68
2023/09/09 02:22:26;;;;;;;4.22;2.90;;;22.70;57.40;;;;;;2520414;54;20990;-69
2023/09/09 02:25:00;;;;;;;5.35;3.42;;;22.60;57.40;;;;;;2522921;54;20941;-68
2023/09/09 02:27:27;;;;;;;4.85;3.30;;;22.60;57.50;;;;;;2521258;54;20954;-70
2023/09/09 02:29:54;;;;;;;6.90;4.22;;;22.60;57.40;;;;;;2519585;54;20938;-66
2023/09/09 02:32:20;;;;;;;6.68;3.83;;;22.60;57.50;;;;;;2519979;54;20953;-68
2023/09/09 02:34:46;;;;;;;4.68;3.20;;;22.60;57.60;;;;;;2520221;54;20970;-67
2023/09/09 02:37:22;;;;;;;5.25;3.50;;;22.60;57.50;;;;;;2285801;55;21001;-68
2023/09/09 02:39:49;;;;;;;6.95;3.35;;;22.60;57.70;;;;;;2520643;54;20970;-67
2023/09/09 02:42:18;;;;;;;5.03;3.17;;;22.60;57.70;;;;;;2518990;54;20966;-67
2023/09/09 02:44:52;;;;;;;4.40;2.97;;;22.50;57.60;;;;;;2286666;55;21481;-68
2023/09/09 02:47:18;;;;;;;;;;;22.50;57.50;;;;;;2523173;54;21136;-68
2023/09/09 02:49:44;;;;;;;6.00;2.22;;;22.50;57.60;;;;;;2519162;54;20120;-68
2023/09/09 02:52:14;;;;;;;3.55;2.37;;;22.50;57.30;;;;;;2520053;54;20958;-67
2023/09/09 02:54:41;;;;;;;4.15;2.55;;;22.50;57.30;;;;;;2519428;54;21085;-68
2023/09/09 02:57:07;;;;;;;4.12;2.75;;;22.50;57.40;;;;;;2521123;54;21022;-68
2023/09/09 02:59:35;;;;;;;4.28;2.97;;;22.40;57.40;;;;;;2521079;54;21009;-67
2023/09/09 03:02:02;;;;;;;4.10;2.92;;;22.40;57.50;;;;;;2285865;55;20947;-68
2023/09/09 03:04:32;;;;;;;4.80;2.90;;;22.40;57.50;;;;;;2519553;54;20957;-68
2023/09/09 03:06:58;;;;;;;4.40;3.08;;;22.40;57.60;;;;;;2520045;54;21091;-68
2023/09/09 03:09:26;;;;;;;4.62;3.28;;;22.40;57.60;;;;;;2497805;55;20965;-67
2023/09/09 03:11:53;;;;;;;4.12;2.78;;;22.30;57.60;;;;;;2519499;54;21963;-68
2023/09/09 03:14:22;;;;;;;4.57;3.05;;;22.30;57.60;;;;;;2519068;54;21009;-67
2023/09/09 03:16:49;;;;;;;4.60;3.17;;;22.30;57.60;;;;;;2519221;54;20974;-68
2023/09/09 03:19:17;;;;;;;5.05;3.55;;;22.30;57.60;;;;;;2522636;54;20988;-70
2023/09/09 03:21:43;;;;;;;4.37;2.92;;;22.30;57.80;;;;;;2287202;55;20984;-70
2023/09/09 03:24:10;;;;;;;4.00;2.58;;;22.20;57.80;;;;;;2519344;54;20965;-68
2023/09/09 03:26:36;;;;;;;4.60;3.05;;;22.20;57.80;;;;;;2290153;55;20999;-68
2023/09/09 03:29:03;;;;;;;5.07;3.20;;;22.20;57.80;;;;;;2519895;54;21675;-66
2023/09/09 03:31:30;;;;;;;5.45;3.70;;;22.20;57.90;;;;;;2284843;55;20934;-65
2023/09/09 03:33:57;;;;;;;7.75;3.55;;;22.20;58.00;;;;;;2520635;54;21025;-66
2023/09/09 03:36:23;;;;;;;4.12;2.95;;;22.20;57.90;;;;;;2519347;54;20938;-68
2023/09/09 03:38:50;;;;;;;4.68;3.25;;;22.20;58.00;;;;;;2286186;55;21002;-66
2023/09/09 03:41:16;;;;;;;5.65;3.55;;;22.10;57.90;;;;;;2519888;54;21787;-68
2023/09/09 03:43:43;;;;;;;5.50;3.42;;;22.10;57.90;;;;;;2519304;54;21140;-68
2023/09/09 03:46:10;;;;;;;4.97;3.30;;;22.10;57.90;;;;;;2285370;55;20976;-68
2023/09/09 03:48:36;;;;;;;5.47;3.55;;;22.10;58.00;;;;;;2519550;54;21010;-68
2023/09/09 03:51:02;;;;;;;4.20;3.28;;;22.10;58.00;;;;;;2519944;54;21002;-67
2023/09/09 03:53:29;;;;;;;3.92;2.70;;;22.10;58.00;;;;;;2519731;54;20950;-70
2023/09/09 03:55:58;;;;;;;4.35;2.75;;;22.10;58.00;;;;;;2523300;54;21018;-71
2023/09/09 03:58:26;;;;;;;5.15;2.92;;;22.00;57.80;;;;;;2520262;54;20962;-71
2023/09/09 04:01:06;;;;;;;4.62;3.08;;;22.00;57.80;;;;;;2286656;55;20946;-70
2023/09/09 04:03:34;;;;;;;6.55;3.25;;;22.00;58.00;;;;;;2286112;55;20981;-67
2023/09/09 04:06:04;;;;;;;5.70;3.37;;;22.00;57.90;;;;;;2291177;55;20979;-68
2023/09/09 04:08:31;;;;;;;6.05;3.12;;;21.90;57.90;;;;;;2520379;54;20998;-69
2023/09/09 04:10:57;;;;;;;3.90;2.87;;;21.90;57.90;;;;;;2520242;54;20913;-67
2023/09/09 04:13:24;;;;;;;5.55;3.40;;;21.90;57.90;;;;;;2519688;54;21020;-69
2023/09/09 04:15:55;;;;;;;5.43;3.60;;;21.90;58.00;;;;;;2519371;54;20926;-68
2023/09/09 04:18:23;;;;;;;4.93;3.10;;;21.90;58.10;;;;;;2290898;55;21085;-67
2023/09/09 04:20:59;;;;;;;4.37;3.05;;;21.80;58.00;;;;;;2521303;54;20982;-67
2023/09/09 04:23:25;;;;;;;4.18;3.08;;;21.80;57.90;;;;;;2520206;54;20959;-68
2023/09/09 04:25:51;;;;;;;4.35;3.15;;;21.80;57.90;;;;;;2519964;54;21098;-69
2023/09/09 04:28:18;;;;;;;4.57;3.10;;;21.80;58.00;;;;;;2520166;54;20950;-67
2023/09/09 04:30:45;;;;;;;4.37;2.92;;;21.80;58.10;;;;;;2519787;54;20953;-68
2023/09/09 04:33:12;;;;;;;5.53;3.15;;;21.80;58.00;;;;;;2520064;54;20994;-68
2023/09/09 04:35:39;;;;;;;6.25;3.75;;;21.70;58.00;;;;;;2520392;54;20967;-69
2023/09/09 04:38:06;;;;;;;5.20;3.47;;;21.70;58.10;;;;;;2524088;54;20957;-67
2023/09/09 04:40:33;;;;;;;7.05;3.33;;;21.70;58.10;;;;;;2287100;55;20959;-69
2023/09/09 04:43:01;;;;;;;4.90;3.22;;;21.70;58.10;;;;;;2519786;54;21081;-68
2023/09/09 04:45:27;;;;;;;5.22;3.40;;;21.60;58.10;;;;;;2287234;55;21061;-70
2023/09/09 04:47:53;;;;;;;6.68;3.65;;;21.60;58.20;;;;;;2286664;55;20993;-69
2023/09/09 04:50:20;;;;;;;4.95;3.45;;;21.60;58.20;;;;;;2518687;54;21946;-70
2023/09/09 04:52:47;;;;;;;5.37;3.75;;;21.60;58.30;;;;;;2522235;54;21730;-68
2023/09/09 04:55:14;;;;;;;5.18;3.45;;;21.60;58.30;;;;;;2520611;54;20994;-67
2023/09/09 04:57:40;;;;;;;4.20;3.22;;;21.40;58.20;;;;;;2518869;54;21016;-67
2023/09/09 05:00:09;;;;;;;4.22;3.00;;;21.50;58.30;;;;;;2285520;55;21329;-69
2023/09/09 05:02:37;;;;;;;5.10;3.17;;;21.50;58.30;;;;;;2519340;54;20930;-67
2023/09/09 05:05:05;;;;;;;5.30;3.28;;;21.50;58.30;;;;;;2521346;54;20991;-67
2023/09/09 05:07:40;;;;;;;5.32;3.00;;;21.50;58.30;;;;;;2286972;55;20938;-67
2023/09/09 05:10:07;;;;;;;5.65;2.97;;;21.50;58.40;;;;;;2271191;55;21782;-68
2023/09/09 05:12:33;;;;;;;5.03;3.70;;;21.50;58.20;;;;;;2519767;54;20993;-67
2023/09/09 05:15:02;;;;;;;4.80;3.15;;;21.40;58.20;;;;;;2520077;54;20985;-69
2023/09/09 05:17:28;;;;;;;4.53;3.12;;;21.40;58.30;;;;;;2520199;54;21056;-67
2023/09/09 05:19:55;;;;;;;4.45;3.00;;;21.40;58.30;;;;;;2520113;54;21009;-68
2023/09/09 05:22:21;;;;;;;4.60;3.10;;;21.40;58.40;;;;;;2285959;55;21017;-68
2023/09/09 05:24:47;;;;;;;4.72;3.47;;;21.40;58.40;;;;;;2286010;55;21005;-68
2023/09/09 05:27:14;;;;;;;6.15;3.28;;;21.40;58.50;;;;;;2522541;54;21764;-67
2023/09/09 05:29:40;;;;;;;4.87;3.50;;;21.40;58.60;;;;;;2523396;54;20942;-68
2023/09/09 05:32:06;;;;;;;5.12;2.85;;;21.30;58.50;;;;;;2520118;54;20989;-68
2023/09/09 05:34:35;;;;;;;4.18;2.97;;;21.30;58.60;;;;;;2520313;54;20986;-69
2023/09/09 05:37:02;;;;;;;5.70;3.25;;;21.30;58.60;;;;;;2519487;54;21081;-69
2023/09/09 05:39:31;;;;;;;4.60;3.17;;;21.30;58.60;;;;;;2519657;54;21033;-68
2023/09/09 05:41:59;;;;;;;4.75;3.20;;;21.30;58.60;;;;;;2520435;54;20974;-70
2023/09/09 05:44:29;;;;;;;4.62;3.30;;;21.30;58.70;;;;;;2520340;54;20938;-69
2023/09/09 05:46:56;;;;;;;5.47;3.35;;;21.30;58.80;;;;;;2520292;54;20941;-68
2023/09/09 05:49:23;;;;;;;4.50;3.25;;;21.30;58.80;;;;;;2519753;54;21025;-68
2023/09/09 05:51:53;;;;;;;5.28;4.00;;;21.30;58.80;;;;;;2519610;54;20970;-70
2023/09/09 05:54:21;;;;;;;5.72;3.33;;;21.30;58.90;;;;;;2519818;54;21024;-69
2023/09/09 05:56:48;;;;;;;4.35;3.10;;;21.30;59.00;;;;;;2519391;54;20910;-67
2023/09/09 05:59:15;;;;;;;6.30;3.45;;;21.30;59.00;;;;;;2518961;54;21037;-67
2023/09/09 06:01:43;;;;;;;5.30;3.55;;;21.30;59.10;;;;;;2523036;54;21012;-68
2023/09/09 06:04:15;;;;;;;4.60;3.30;;;21.30;59.10;;;;;;2496109;54;21313;-69
2023/09/09 06:06:47;;;;;;;4.72;3.10;;;21.30;59.20;;;;;;2521076;54;20942;-68
2023/09/09 06:09:13;;;;;;;5.68;2.90;;;21.40;59.30;;;;;;2519425;54;21301;-67
2023/09/09 06:11:41;;;;;;;5.40;3.35;;;21.40;59.30;;;;;;2285459;55;20945;-73
2023/09/09 06:14:07;;;;;;;5.07;3.30;;;21.40;59.40;;;;;;2519342;54;20930;-71
2023/09/09 06:16:38;;;;;;;5.20;3.25;;;21.40;59.40;;;;;;2519295;54;20946;-69
2023/09/09 06:19:04;;;;;;;7.72;3.40;;;21.40;59.50;;;;;;2286262;55;20946;-71
2023/09/09 06:21:31;;;;;;;4.53;3.05;;;21.40;59.60;;;;;;2519114;54;21010;-71
2023/09/09 06:23:58;;;;;;;6.40;3.53;;;21.40;59.60;;;;;;2519870;54;20994;-68
2023/09/09 06:26:33;;;;;;;7.07;4.25;;;21.50;59.80;;;;;;2519924;54;20942;-69
2023/09/09 06:28:59;;;;;;;6.05;3.17;;;21.50;59.90;;;;;;2520294;54;20953;-69
2023/09/09 06:31:26;;;;;;;5.50;3.55;;;21.50;59.90;;;;;;2520200;54;20938;-69
2023/09/09 06:33:53;;;;;;;4.90;3.78;;;21.60;60.10;;;;;;2520515;54;20953;-71
2023/09/09 06:36:21;;;;;;;4.55;3.12;;;21.60;60.20;;;;;;2520161;54;22117;-73
2023/09/09 06:38:48;;;;;;;5.62;3.60;;;21.70;60.40;;;;;;2520212;54;21005;-69
2023/09/09 06:41:17;;;;;;;5.28;3.50;;;21.70;60.50;;;;;;2522132;54;20999;-70
2023/09/09 06:43:44;;;;;;;5.75;3.90;;;21.80;60.70;;;;;;2521506;54;20989;-69
2023/09/09 06:46:10;;;;;;;6.53;3.42;;;21.80;60.80;;;;;;2520820;54;21390;-70
2023/09/09 06:48:37;;;;;;;5.82;3.62;;;21.80;60.90;;;;;;2521693;54;21030;-69
2023/09/09 06:51:03;;;;;;;6.90;4.00;;;21.90;61.10;;;;;;2522456;54;20950;-70
2023/09/09 06:53:31;;;;;;;6.22;4.30;;;22.00;61.50;;;;;;2285901;55;21387;-69
2023/09/09 06:55:57;;;;;;;4.87;3.20;;;22.00;61.50;;;;;;2286551;55;21011;-69
2023/09/09 06:58:23;;;;;;;5.00;3.22;;;22.10;61.60;;;;;;2523141;54;21037;-70
2023/09/09 07:00:51;;;;;;;4.70;3.47;;;22.20;61.70;;;;;;2520897;54;20963;-69
2023/09/09 07:03:20;;;;;;;4.70;3.33;;;22.30;61.90;;;;;;2519198;54;21920;-69
2023/09/09 07:05:47;;;;;;;5.62;3.90;;;22.30;61.90;;;;;;2520257;54;21066;-69
2023/09/09 07:08:14;;;;;;;4.90;3.37;;;22.40;62.10;;;;;;2518912;54;20975;-73
2023/09/09 07:10:51;;;;;;;6.65;3.78;;;22.50;62.30;;;;;;2519421;54;20934;-69
2023/09/09 07:13:19;;;;;;;5.50;3.72;;;22.60;62.80;;;;;;2286247;55;20985;-69
2023/09/09 07:15:46;;;;;;;5.20;3.33;;;22.70;62.60;;;;;;2497107;55;21850;-67
2023/09/09 07:18:12;;;;;;;4.70;3.17;;;22.70;62.60;;;;;;2285513;55;21371;-69
2023/09/09 07:20:39;;;;;;;4.72;3.30;;;22.90;62.80;;;;;;2519356;54;21041;-69
2023/09/09 07:23:05;;;;;;;5.03;4.05;;;23.00;62.90;;;;;;2519960;54;20977;-67
2023/09/09 07:25:33;;;;;;;4.68;3.60;;;23.10;62.90;;;;;;2285420;55;20950;-70
2023/09/09 07:27:59;;;;;;;5.30;3.85;;;23.20;63.00;;;;;;2520503;54;21005;-69
2023/09/09 07:30:26;;;;;;;6.45;4.20;;;23.30;63.00;;;;;;2287541;55;20972;-70
2023/09/09 07:32:56;;;;;;;5.85;4.57;;;23.40;62.90;;;;;;2518572;54;21689;-68
2023/09/09 07:35:27;;;;;;;7.10;5.00;;;23.50;63.10;;;;;;2286369;55;20965;-69
2023/09/09 07:37:53;;;;;;;5.82;4.12;;;23.50;62.90;;;;;;2285289;55;21023;-69
2023/09/09 07:40:19;;;;;;;5.35;3.83;;;23.70;62.90;;;;;;2497785;54;21085;-69
2023/09/09 07:42:46;;;;;;;6.22;4.30;;;23.80;62.80;;;;;;2286134;55;21426;-69
2023/09/09 07:45:15;;;;;;;5.05;3.78;;;23.90;63.00;;;;;;2520101;54;21446;-70
2023/09/09 07:47:42;;;;;;;5.47;3.87;;;23.90;62.90;;;;;;2522453;54;21062;-71
2023/09/09 07:50:09;;;;;;;6.43;3.67;;;24.10;62.90;;;;;;2519634;54;20981;-69
2023/09/09 07:52:35;;;;;;;4.87;3.62;;;24.10;62.70;;;;;;2518792;54;21101;-72
2023/09/09 07:55:02;;;;;;;5.53;3.70;;;24.20;62.60;;;;;;2518081;54;20965;-70
2023/09/09 07:57:28;;;;;;;5.65;3.95;;;24.30;62.50;;;;;;2517751;54;90483;-69
2023/09/09 07:59:54;;;;;;;4.90;3.85;;;24.40;62.50;;;;;;2519963;54;20930;-69
2023/09/09 08:02:21;;;;;;;6.32;3.85;;;24.50;62.60;;;;;;2521793;54;21019;-68
2023/09/09 08:04:49;;;;;;;5.72;4.05;;;24.60;62.60;;;;;;2520782;54;20941;-69
2023/09/09 08:07:16;;;;;;;5.32;4.28;;;24.70;62.50;;;;;;2291270;55;20952;-68
2023/09/09 08:09:43;;;;;;;5.28;4.18;;;24.80;62.40;;;;;;2521886;54;20983;-69
2023/09/09 08:12:09;;;;;;;6.78;4.45;;;24.80;62.30;;;;;;2522502;54;20992;-74
2023/09/09 08:14:35;;;;;;;5.28;3.90;;;24.90;62.50;;;;;;2521675;54;20999;-71
2023/09/09 08:17:02;;;;;;;5.78;3.90;;;25.00;62.60;;;;;;2522358;54;21836;-70
2023/09/09 08:19:32;;;;;;;6.80;4.43;;;25.10;62.50;;;;;;2520995;54;21053;-72
2023/09/09 08:21:59;;;;;;;5.95;4.15;;;25.20;62.30;;;;;;2520219;54;21013;-69
2023/09/09 08:24:25;;;;;;;5.78;3.80;;;25.30;62.20;;;;;;2522525;54;20971;-72
2023/09/09 08:26:52;;;;;;;5.25;3.92;;;25.30;62.10;;;;;;2521893;54;21027;-69
2023/09/09 08:29:18;;;;;;;5.32;3.97;;;25.40;62.00;;;;;;2520517;54;21001;-70
2023/09/09 08:31:49;;;;;;;4.85;3.60;;;25.50;62.00;;;;;;2286119;55;20938;-72
2023/09/09 08:34:15;;;;;;;5.50;4.05;;;25.60;61.90;;;;;;2522127;54;20963;-70
2023/09/09 08:36:42;;;;;;;5.07;3.65;;;25.70;61.80;;;;;;2519947;54;21002;-71
2023/09/09 08:39:11;;;;;;;6.20;4.57;;;25.80;62.00;;;;;;2289776;55;20946;-72
2023/09/09 08:43:15;;;;;;;6.85;4.60;;;25.80;61.80;;;;;;2287572;55;21049;-72
2023/09/09 08:46:28;;;;;;;6.25;3.87;;;26.00;62.10;;;;;;2519466;54;21760;-66
2023/09/09 08:48:54;;;;;;;6.72;3.58;;;26.10;61.70;;;;;;2520058;54;21001;-69
2023/09/09 08:51:34;;;;;;;5.37;3.45;;;26.20;61.50;;;;;;2520473;54;21013;-72
2023/09/09 08:54:00;;;;;;;7.03;3.83;;;26.30;61.40;;;;;;2520207;54;20994;-70
2023/09/09 08:56:27;;;;;;;4.90;3.70;;;26.30;61.40;;;;;;2519963;54;21808;-69
2023/09/09 08:58:53;;;;;;;5.28;3.72;;;26.40;61.40;;;;;;2517640;54;20990;-71
2023/09/09 09:01:19;;;;;;;4.75;3.30;;;26.50;61.40;;;;;;2519396;54;20965;-71
2023/09/09 09:03:46;;;;;;;8.35;4.30;;;26.60;61.20;;;;;;2520463;54;21043;-72
2023/09/09 09:06:12;;;;;;;4.90;3.60;;;26.70;61.10;;;;;;2519970;54;21045;-70
2023/09/09 09:08:42;;;;;;;6.43;4.78;;;26.80;61.00;;;;;;2519399;54;20958;-73
2023/09/09 09:11:11;;;;;;;5.60;4.78;;;26.90;61.10;;;;;;2520008;54;21001;-72
2023/09/09 09:13:37;;;;;;;4.72;3.83;;;27.00;61.10;;;;;;2518767;54;20961;-71
2023/09/09 09:16:04;;;;;;;5.93;4.22;;;27.10;61.70;;;;;;2286085;55;20934;-69
2023/09/09 09:18:33;;;;;;;5.62;4.12;;;27.10;61.10;;;;;;2286127;55;21521;-71
2023/09/09 09:21:06;;;;;;;5.15;4.15;;;27.20;61.10;;;;;;2520177;54;21029;-71
2023/09/09 09:23:32;;;;;;;6.35;4.18;;;27.30;61.00;;;;;;2519767;54;21018;-72
2023/09/09 09:26:01;;;;;;;5.75;4.05;;;27.40;60.80;;;;;;2497646;54;21778;-70
2023/09/09 09:28:28;;;;;;;5.45;3.70;;;27.50;60.70;;;;;;2286440;55;21009;-71
2023/09/09 09:30:54;;;;;;;5.28;3.62;;;27.60;60.50;;;;;;2519817;54;21445;-72
2023/09/09 09:33:27;;;;;;;4.65;3.37;;;27.60;60.30;;;;;;2519839;54;21806;-72
2023/09/09 09:35:54;;;;;;;5.32;4.00;;;27.70;60.30;;;;;;2286060;55;21536;-70
2023/09/09 09:38:20;;;;;;;4.85;3.80;;;27.80;60.20;;;;;;2519589;54;20989;-70
2023/09/09 09:40:47;;;;;;;5.35;3.83;;;27.90;60.10;;;;;;2520919;54;21016;-71
2023/09/09 09:43:23;;;;;;;5.55;4.12;;;28.00;60.00;;;;;;2520637;54;21118;-70
2023/09/09 09:45:49;;;;;;;5.43;4.10;;;28.10;59.70;;;;;;2520340;54;21001;-70
2023/09/09 09:48:26;;;;;;;5.95;3.97;;;28.10;59.70;;;;;;2520545;54;20957;-70
2023/09/09 09:50:53;;;;;;;4.65;3.72;;;28.20;59.40;;;;;;2520171;54;21018;-70
2023/09/09 09:53:19;;;;;;;6.35;3.90;;;28.30;59.50;;;;;;2286587;55;20958;-72
2023/09/09 09:55:45;;;;;;;5.75;4.10;;;28.40;59.40;;;;;;2286534;55;21030;-71
2023/09/09 09:58:13;;;;;;;5.60;4.55;;;28.40;59.20;;;;;;2518989;54;20998;-70
2023/09/09 10:00:39;;;;;;;6.15;4.28;;;28.50;59.30;;;;;;2519197;54;21001;-74
2023/09/09 10:03:05;;;;;;;5.90;3.97;;;28.60;59.20;;;;;;2519008;54;21021;-70
2023/09/09 10:05:33;;;;;;;5.47;3.62;;;28.60;59.10;;;;;;2520298;54;20966;-71
2023/09/09 10:08:11;;;;;;;5.78;3.58;;;28.70;58.90;;;;;;2520129;54;20966;-72
2023/09/09 10:10:42;;;;;;;4.40;3.75;;;28.80;58.80;;;;;;2286635;55;20946;-71
2023/09/09 10:13:17;;;;;;;6.40;4.07;;;28.80;58.80;;;;;;2519623;54;21104;-71
2023/09/09 10:15:45;;;;;;;4.80;3.58;;;28.90;58.50;;;;;;2520172;54;21747;-70
2023/09/09 10:18:13;;;;;;;6.80;3.65;;;29.00;58.60;;;;;;2287493;55;21572;-69
2023/09/09 10:20:40;;;;;;;5.22;4.22;;;29.00;58.40;;;;;;2520014;54;21318;-71
2023/09/09 10:23:07;;;;;;;5.55;4.43;;;29.10;58.50;;;;;;2522246;54;21775;-73
2023/09/09 10:25:33;;;;;;;5.03;3.80;;;29.10;58.60;;;;;;2286340;55;20957;-68
2023/09/09 10:28:04;;;;;;;5.22;4.15;;;29.20;58.50;;;;;;2520383;54;21033;-72
2023/09/09 10:30:30;;;;;;;4.25;3.22;;;29.30;58.50;;;;;;2520603;54;21069;-71
2023/09/09 10:32:56;;;;;;;5.00;3.67;;;29.30;58.30;;;;;;2286056;55;20981;-72
2023/09/09 10:35:23;;;;;;;5.07;3.60;;;29.40;58.30;;;;;;2289973;55;20970;-71
2023/09/09 10:37:50;;;;;;;5.22;3.95;;;29.40;58.10;;;;;;2287328;55;21768;-70
2023/09/09 10:40:17;;;;;;;4.37;3.70;;;29.50;58.00;;;;;;2286660;55;20986;-73
2023/09/09 10:42:43;;;;;;;4.78;3.85;;;29.60;58.00;;;;;;2520631;54;21416;-70
2023/09/09 10:45:29;;;;;;;5.65;4.00;;;29.70;58.00;;;;;;2520653;54;20958;-69
2023/09/09 10:48:03;;;;;;;5.05;3.78;;;29.70;57.60;;;;;;2519923;54;21026;-73
2023/09/09 10:50:46;;;;;;;4.85;3.62;;;29.80;57.70;;;;;;2520242;54;21044;-70
2023/09/09 10:53:17;;;;;;;5.95;3.83;;;29.80;57.30;;;;;;2520300;54;21085;-71
2023/09/09 10:55:45;;;;;;;4.63;3.50;;;29.90;57.50;;;;;;2520068;54;20953;-70
2023/09/09 10:58:15;;;;;;;4.85;3.75;;;30.00;57.50;;;;;;2521379;54;21055;-69
2023/09/09 11:00:43;;;;;;;6.72;4.10;;;30.10;57.30;;;;;;2521186;54;20950;-67
2023/09/09 11:04:33;;;;;;;4.78;3.65;;;30.20;57.40;;;;;;2286087;55;20985;-68
2023/09/09 11:07:13;;;;;;;4.45;3.33;;;30.20;57.10;;;;;;2519622;54;20985;-69
2023/09/09 11:09:50;;;;;;;5.57;3.22;;;30.30;57.00;;;;;;2520232;54;20989;-68
2023/09/09 11:12:17;;;;;;;5.32;3.75;;;30.40;56.70;;;;;;2519332;54;21033;-70
2023/09/09 11:14:45;;;;;;;11.15;3.90;;;30.40;56.90;;;;;;2518247;54;21067;-68
2023/09/09 11:17:13;;;;;;;4.60;3.55;;;30.50;56.80;;;;;;2285924;55;20957;-71
2023/09/09 11:19:42;;;;;;;4.37;3.35;;;30.50;56.80;;;;;;2520286;54;20989;-69
2023/09/09 11:22:09;;;;;;;4.75;3.50;;;30.60;56.60;;;;;;2520285;54;20945;-67
2023/09/09 11:24:35;;;;;;;6.12;3.50;;;30.70;56.70;;;;;;2520796;54;21905;-69
2023/09/09 11:27:03;;;;;;;4.90;3.55;;;30.70;56.50;;;;;;2521730;54;21013;-69
2023/09/09 11:29:29;;;;;;;4.82;3.75;;;30.80;56.40;;;;;;2521515;54;21055;-71
2023/09/09 11:32:02;;;;;;;5.20;3.72;;;30.80;56.20;;;;;;2291994;55;20976;-68
2023/09/09 11:34:32;;;;;;;5.35;3.58;;;30.90;56.10;;;;;;2520143;54;20981;-69
2023/09/09 11:37:00;;;;;;;5.65;3.67;;;31.00;56.00;;;;;;2522804;54;21103;-69
2023/09/09 11:39:41;;;;;;;5.10;3.42;;;30.90;55.80;;;;;;2291131;55;20943;-68
2023/09/09 11:42:07;;;;;;;6.43;4.05;;;31.10;55.80;;;;;;2285515;55;20953;-71
2023/09/09 11:44:42;;;;;;;5.00;3.58;;;31.20;56.00;;;;;;2286680;55;21054;-70
2023/09/09 11:47:09;;;;;;;6.80;3.90;;;31.20;55.50;;;;;;2285803;55;20994;-70
2023/09/09 11:49:39;;;;;;;6.37;3.78;;;31.20;55.40;;;;;;2519245;54;21046;-69
2023/09/09 11:52:05;;;;;;;5.57;3.55;;;31.30;55.20;;;;;;2286030;55;20981;-69
2023/09/09 11:54:32;;;;;;;4.75;3.50;;;31.40;54.90;;;;;;2519380;54;21426;-68
2023/09/09 11:57:09;;;;;;;5.05;3.40;;;31.50;54.70;;;;;;2284827;55;21056;-70
2023/09/09 11:59:49;;;;;;;5.15;3.45;;;31.50;54.40;;;;;;2521118;54;21406;-71
2023/09/09 12:02:25;;;;;;;5.22;3.75;;;31.60;54.30;;;;;;2523191;54;20964;-72
2023/09/09 12:05:01;;;;;;;4.60;3.17;;;31.60;54.40;;;;;;2286724;55;21040;-69
2023/09/09 12:07:35;;;;;;;4.82;3.53;;;31.70;54.20;;;;;;2519809;54;20929;-71
2023/09/09 12:10:03;;;;;;;4.87;3.28;;;31.70;54.10;;;;;;2286392;55;20925;-69
2023/09/09 12:12:33;;;;;;;5.10;3.05;;;31.70;54.20;;;;;;2520291;54;21570;-69
2023/09/09 12:15:01;;;;;;;4.55;3.00;;;31.80;54.00;;;;;;2519625;54;20993;-71
2023/09/09 12:17:28;;;;;;;3.80;2.62;;;31.90;53.70;;;;;;2519825;54;21336;-71
2023/09/09 12:19:55;;;;;;;5.55;2.55;;;31.90;53.40;;;;;;2518844;54;20977;-68
2023/09/09 12:22:31;;;;;;;4.62;2.75;;;31.90;53.40;;;;;;2285824;55;20950;-67
2023/09/09 12:24:59;;;;;;;4.12;2.60;;;32.00;52.80;;;;;;2285343;55;21009;-71
2023/09/09 12:27:44;;;;;;;5.18;2.75;;;32.00;53.00;;;;;;2519781;54;20965;-69
2023/09/09 12:37:00;;;;;;;4.35;2.85;;;32.10;52.40;;;;;;2522204;54;21020;-69
2023/09/09 12:39:30;;;;;;;4.72;2.08;;;32.30;52.50;;;;;;2286306;55;20977;-72
2023/09/09 12:42:01;;;;;;;5.55;2.22;;;32.30;52.00;;;;;;2519872;54;21658;-69
2023/09/09 12:44:30;;;;;;;4.50;2.60;;;32.30;51.90;;;;;;2519964;54;21431;-69
2023/09/09 12:47:02;;;;;;;4.30;2.42;;;32.30;51.80;;;;;;2519335;54;20946;-69
2023/09/09 12:49:29;;;;;;;3.20;2.03;;;32.40;51.20;;;;;;2286670;55;20970;-70
2023/09/09 12:51:55;;;;;;;4.47;1.98;;;32.40;51.40;;;;;;2518940;54;21002;-69
2023/09/09 12:54:25;;;;;;;5.47;2.58;;;32.40;51.00;;;;;;2523039;54;20916;-69
2023/09/09 12:56:51;;;;;;;3.97;2.03;;;32.40;50.40;;;;;;2286782;55;21705;-68
2023/09/09 12:59:18;;;;;;;3.95;2.17;;;32.50;50.60;;;;;;2520006;54;20918;-68
2023/09/09 13:01:48;;;;;;;4.35;2.25;;;32.50;50.50;;;;;;2513831;54;21025;-70